createdAt,value
2019-05-16T00:00:00.750Z,7.20
2019-05-16T00:00:05.754Z,7.20
2019-05-16T00:00:10.752Z,7.20
2019-05-16T00:00:15.753Z,7.20
2019-05-16T00:00:20.755Z,6.74
2019-05-16T00:00:27.209Z,7.05
2019-05-16T00:00:30.759Z,6.43
2019-05-16T00:00:35.804Z,6.95
2019-05-16T00:00:40.793Z,7.12
2019-05-16T00:00:45.760Z,7.17
2019-05-16T00:00:50.761Z,7.19
2019-05-16T00:00:55.762Z,7.49
2019-05-16T00:01:00.764Z,7.30
2019-05-16T00:01:05.764Z,6.51
2019-05-16T00:01:10.767Z,6.97
2019-05-16T00:01:15.766Z,7.13
2019-05-16T00:01:20.770Z,7.18
2019-05-16T00:01:25.770Z,6.47
2019-05-16T00:01:30.770Z,5.30
2019-05-16T00:01:35.770Z,5.45
2019-05-16T00:01:40.770Z,6.63
2019-05-16T00:01:45.771Z,7.01
2019-05-16T00:01:50.780Z,7.14
2019-05-16T00:01:55.774Z,7.18
2019-05-16T00:02:00.776Z,7.19
2019-05-16T00:02:05.777Z,7.20
2019-05-16T00:02:11.200Z,7.20
2019-05-16T00:02:15.778Z,7.20
2019-05-16T00:02:20.779Z,7.20
2019-05-16T00:02:25.781Z,7.20
2019-05-16T00:02:30.781Z,7.20
2019-05-16T00:02:35.782Z,7.20
2019-05-16T00:02:40.784Z,7.20
2019-05-16T00:02:45.785Z,7.20
2019-05-16T00:02:50.788Z,7.20
2019-05-16T00:02:55.786Z,7.20
2019-05-16T00:03:00.787Z,8.07
2019-05-16T00:03:06.677Z,9.24
2019-05-16T00:03:10.791Z,10.29
2019-05-16T00:03:15.790Z,10.63
2019-05-16T00:03:20.791Z,10.75
2019-05-16T00:03:25.793Z,9.03
2019-05-16T00:03:30.793Z,7.80
2019-05-16T00:03:35.794Z,6.68
2019-05-16T00:03:40.798Z,7.03
2019-05-16T00:03:45.796Z,7.14
2019-05-16T00:03:50.798Z,7.18
2019-05-16T00:03:55.799Z,7.19
2019-05-16T00:04:00.800Z,4.78
2019-05-16T00:04:06.095Z,3.99
2019-05-16T00:04:10.807Z,4.45
2019-05-16T00:04:15.806Z,6.00
2019-05-16T00:04:20.805Z,6.09
2019-05-16T00:04:25.805Z,5.89
2019-05-16T00:04:30.806Z,6.77
2019-05-16T00:04:36.114Z,7.06
2019-05-16T00:04:40.807Z,7.15
2019-05-16T00:04:45.808Z,7.18
2019-05-16T00:04:50.810Z,7.20
2019-05-16T00:04:55.812Z,7.66
2019-05-16T00:05:00.811Z,9.48
2019-05-16T00:05:05.812Z,10.37
2019-05-16T00:05:10.813Z,10.66
2019-05-16T00:05:15.814Z,9.00
2019-05-16T00:05:20.816Z,7.79
2019-05-16T00:05:25.823Z,7.85
2019-05-16T00:05:31.187Z,7.41
2019-05-16T00:05:35.823Z,9.32
2019-05-16T00:05:40.819Z,8.19
2019-05-16T00:05:45.820Z,7.23
2019-05-16T00:05:50.821Z,7.21
2019-05-16T00:05:55.823Z,7.20
2019-05-16T00:06:00.826Z,7.20
2019-05-16T00:06:05.825Z,7.57
2019-05-16T00:06:10.830Z,7.32
2019-05-16T00:06:15.826Z,8.90
2019-05-16T00:06:20.828Z,7.76
2019-05-16T00:06:25.829Z,7.38
2019-05-16T00:06:30.829Z,6.68
2019-05-16T00:06:35.832Z,6.74
2019-05-16T00:06:40.965Z,7.05
2019-05-16T00:06:45.833Z,7.15
2019-05-16T00:06:50.833Z,7.64
2019-05-16T00:06:55.835Z,7.35
2019-05-16T00:07:01.187Z,8.49
2019-05-16T00:07:05.837Z,7.62
2019-05-16T00:07:10.976Z,7.34
2019-05-16T00:07:15.845Z,7.25
2019-05-16T00:07:20.844Z,7.21
2019-05-16T00:07:25.855Z,7.20
2019-05-16T00:07:30.843Z,7.20
2019-05-16T00:07:35.850Z,7.20
2019-05-16T00:07:40.904Z,7.20
2019-05-16T00:07:45.848Z,7.20
2019-05-16T00:07:50.850Z,7.20
2019-05-16T00:07:55.851Z,6.48
2019-05-16T00:08:00.854Z,5.67
2019-05-16T00:08:05.851Z,6.33
2019-05-16T00:08:10.850Z,7.63
2019-05-16T00:08:15.851Z,8.58
2019-05-16T00:08:20.860Z,7.65
2019-05-16T00:08:25.853Z,7.35
2019-05-16T00:08:30.873Z,8.43
2019-05-16T00:08:35.855Z,9.36
2019-05-16T00:08:40.860Z,9.61
2019-05-16T00:08:45.858Z,8.36
2019-05-16T00:08:50.859Z,9.70
2019-05-16T00:08:55.969Z,10.44
2019-05-16T00:09:00.863Z,10.68
2019-05-16T00:09:05.869Z,10.76
2019-05-16T00:09:10.864Z,10.79
2019-05-16T00:09:15.866Z,10.80
2019-05-16T00:09:20.864Z,10.80
2019-05-16T00:09:25.867Z,10.14
2019-05-16T00:09:31.226Z,8.46
2019-05-16T00:09:35.866Z,9.74
2019-05-16T00:09:40.869Z,9.41
2019-05-16T00:09:45.868Z,10.35
2019-05-16T00:09:50.870Z,12.78
2019-05-16T00:09:55.872Z,11.45
2019-05-16T00:10:00.874Z,8.89
2019-05-16T00:10:05.889Z,7.46
2019-05-16T00:10:10.893Z,7.28
2019-05-16T00:10:15.903Z,7.80
2019-05-16T00:10:20.893Z,7.86
2019-05-16T00:10:25.916Z,9.84
2019-05-16T00:10:30.907Z,10.19
2019-05-16T00:10:35.896Z,10.23
2019-05-16T00:10:40.896Z,9.89
2019-05-16T00:10:45.898Z,8.08
2019-05-16T00:10:50.899Z,7.49
2019-05-16T00:10:55.971Z,7.29
2019-05-16T00:11:00.908Z,7.23
2019-05-16T00:11:05.902Z,8.54
2019-05-16T00:11:10.904Z,9.40
2019-05-16T00:11:15.906Z,8.58
2019-05-16T00:11:20.905Z,7.19
2019-05-16T00:11:25.908Z,6.62
2019-05-16T00:11:30.908Z,6.35
2019-05-16T00:11:35.909Z,6.92
2019-05-16T00:11:40.911Z,7.11
2019-05-16T00:11:45.910Z,7.17
2019-05-16T00:11:50.911Z,7.19
2019-05-16T00:11:55.912Z,6.62
2019-05-16T00:12:00.914Z,7.01
2019-05-16T00:12:05.914Z,7.14
2019-05-16T00:12:10.916Z,6.46
2019-05-16T00:12:16.023Z,4.83
2019-05-16T00:12:21.232Z,5.18
2019-05-16T00:12:25.919Z,6.54
2019-05-16T00:12:30.920Z,6.98
2019-05-16T00:12:36.280Z,7.13
2019-05-16T00:12:40.924Z,8.58
2019-05-16T00:12:45.923Z,9.13
2019-05-16T00:12:51.240Z,7.83
2019-05-16T00:12:55.924Z,7.41
2019-05-16T00:13:00.925Z,7.27
2019-05-16T00:13:05.926Z,7.22
2019-05-16T00:13:12.037Z,7.21
2019-05-16T00:13:15.929Z,7.20
2019-05-16T00:13:20.930Z,7.20
2019-05-16T00:13:25.930Z,7.20
2019-05-16T00:13:30.932Z,7.20
2019-05-16T00:13:36.188Z,7.20
2019-05-16T00:13:40.934Z,7.20
2019-05-16T00:13:45.934Z,7.20
2019-05-16T00:13:50.935Z,7.20
2019-05-16T00:13:55.937Z,9.25
2019-05-16T00:14:00.938Z,9.00
2019-05-16T00:14:05.939Z,8.08
2019-05-16T00:14:11.409Z,7.49
2019-05-16T00:14:15.940Z,7.29
2019-05-16T00:14:20.941Z,9.08
2019-05-16T00:14:25.942Z,8.48
2019-05-16T00:14:30.945Z,8.80
2019-05-16T00:14:35.945Z,9.02
2019-05-16T00:14:40.946Z,8.83
2019-05-16T00:14:45.947Z,8.46
2019-05-16T00:14:50.949Z,7.91
2019-05-16T00:14:55.949Z,7.43
2019-05-16T00:15:00.949Z,7.28
2019-05-16T00:15:05.953Z,7.22
2019-05-16T00:15:10.951Z,7.21
2019-05-16T00:15:15.954Z,7.92
2019-05-16T00:15:20.955Z,8.91
2019-05-16T00:15:26.598Z,9.81
2019-05-16T00:15:30.955Z,8.72
2019-05-16T00:15:35.957Z,9.75
2019-05-16T00:15:40.958Z,10.46
2019-05-16T00:15:45.958Z,8.56
2019-05-16T00:15:50.958Z,8.37
2019-05-16T00:15:55.960Z,7.88
2019-05-16T00:16:00.965Z,8.37
2019-05-16T00:16:06.391Z,7.58
2019-05-16T00:16:10.962Z,9.08
2019-05-16T00:16:15.965Z,10.24
2019-05-16T00:16:20.965Z,10.62
2019-05-16T00:16:25.966Z,10.02
2019-05-16T00:16:30.967Z,8.12
2019-05-16T00:16:36.642Z,7.50
2019-05-16T00:16:40.970Z,7.30
2019-05-16T00:16:45.971Z,6.77
2019-05-16T00:16:50.972Z,7.06
2019-05-16T00:16:56.146Z,5.97
2019-05-16T00:17:01.449Z,6.50
2019-05-16T00:17:05.974Z,6.97
2019-05-16T00:17:10.976Z,7.13
2019-05-16T00:17:15.978Z,6.71
2019-05-16T00:17:20.981Z,6.38
2019-05-16T00:17:25.987Z,6.93
2019-05-16T00:17:30.979Z,7.11
2019-05-16T00:17:35.980Z,7.17
2019-05-16T00:17:40.987Z,7.19
2019-05-16T00:17:45.983Z,7.20
2019-05-16T00:17:50.986Z,7.20
2019-05-16T00:17:55.987Z,8.32
2019-05-16T00:18:00.988Z,7.57
2019-05-16T00:18:05.987Z,7.32
2019-05-16T00:18:10.988Z,9.00
2019-05-16T00:18:15.988Z,7.79
2019-05-16T00:18:20.991Z,7.39
2019-05-16T00:18:25.991Z,7.98
2019-05-16T00:18:30.992Z,7.46
2019-05-16T00:18:35.992Z,7.28
2019-05-16T00:18:40.995Z,7.23
2019-05-16T00:18:45.995Z,7.21
2019-05-16T00:18:51.227Z,7.20
2019-05-16T00:18:55.996Z,8.24
2019-05-16T00:19:00.998Z,7.54
2019-05-16T00:19:05.999Z,7.89
2019-05-16T00:19:11.002Z,7.72
2019-05-16T00:19:16.000Z,7.37
2019-05-16T00:19:21.017Z,7.98
2019-05-16T00:19:26.003Z,7.75
2019-05-16T00:19:31.013Z,7.38
2019-05-16T00:19:36.009Z,7.26
2019-05-16T00:19:41.011Z,7.22
2019-05-16T00:19:46.019Z,5.73
2019-05-16T00:19:51.019Z,6.14
2019-05-16T00:19:56.014Z,5.52
2019-05-16T00:20:01.017Z,5.41
2019-05-16T00:20:06.018Z,6.04
2019-05-16T00:20:11.017Z,8.58
2019-05-16T00:20:16.015Z,9.50
2019-05-16T00:20:21.014Z,7.95
2019-05-16T00:20:26.027Z,5.69
2019-05-16T00:20:31.019Z,4.28
2019-05-16T00:20:36.019Z,3.82
2019-05-16T00:20:41.019Z,6.09
2019-05-16T00:20:46.025Z,6.84
2019-05-16T00:20:51.020Z,6.71
2019-05-16T00:20:56.180Z,7.04
2019-05-16T00:21:01.028Z,6.20
2019-05-16T00:21:06.023Z,5.58
2019-05-16T00:21:11.024Z,4.25
2019-05-16T00:21:16.024Z,4.18
2019-05-16T00:21:21.026Z,5.09
2019-05-16T00:21:26.028Z,5.93
2019-05-16T00:21:31.031Z,6.21
2019-05-16T00:21:36.028Z,6.41
2019-05-16T00:21:41.029Z,6.94
2019-05-16T00:21:46.030Z,5.93
2019-05-16T00:21:51.034Z,5.38
2019-05-16T00:21:56.039Z,6.60
2019-05-16T00:22:01.034Z,5.25
2019-05-16T00:22:06.035Z,4.72
2019-05-16T00:22:11.036Z,6.39
2019-05-16T00:22:16.042Z,6.93
2019-05-16T00:22:21.037Z,7.11
2019-05-16T00:22:26.038Z,5.41
2019-05-16T00:22:31.040Z,4.19
2019-05-16T00:22:36.041Z,5.55
2019-05-16T00:22:41.042Z,7.03
2019-05-16T00:22:46.043Z,7.14
2019-05-16T00:22:51.044Z,7.18
2019-05-16T00:22:56.044Z,7.19
2019-05-16T00:23:01.046Z,7.20
2019-05-16T00:23:06.047Z,7.20
2019-05-16T00:23:11.048Z,5.54
2019-05-16T00:23:16.049Z,4.23
2019-05-16T00:23:21.050Z,5.93
2019-05-16T00:23:26.056Z,6.78
2019-05-16T00:23:31.052Z,5.36
2019-05-16T00:23:36.054Z,5.36
2019-05-16T00:23:41.063Z,5.42
2019-05-16T00:23:46.056Z,6.62
2019-05-16T00:23:51.121Z,6.06
2019-05-16T00:23:56.058Z,6.11
2019-05-16T00:24:01.062Z,5.60
2019-05-16T00:24:06.060Z,4.62
2019-05-16T00:24:11.214Z,6.93
2019-05-16T00:24:16.061Z,7.78
2019-05-16T00:24:21.064Z,7.39
2019-05-16T00:24:26.070Z,7.26
2019-05-16T00:24:31.227Z,7.80
2019-05-16T00:24:36.065Z,9.52
2019-05-16T00:24:41.072Z,8.26
2019-05-16T00:24:46.070Z,7.55
2019-05-16T00:24:51.162Z,7.31
2019-05-16T00:24:56.074Z,6.87
2019-05-16T00:25:01.075Z,7.09
2019-05-16T00:25:06.076Z,7.16
2019-05-16T00:25:11.083Z,7.19
2019-05-16T00:25:16.081Z,7.20
2019-05-16T00:25:21.076Z,7.20
2019-05-16T00:25:26.076Z,5.72
2019-05-16T00:25:31.076Z,6.14
2019-05-16T00:25:36.077Z,6.56
2019-05-16T00:25:41.079Z,6.99
2019-05-16T00:25:46.080Z,7.13
2019-05-16T00:25:51.080Z,7.18
2019-05-16T00:25:56.081Z,5.07
2019-05-16T00:26:01.085Z,4.66
2019-05-16T00:26:06.083Z,4.96
2019-05-16T00:26:11.090Z,5.60
2019-05-16T00:26:16.088Z,6.31
2019-05-16T00:26:22.112Z,6.33
2019-05-16T00:26:26.086Z,5.68
2019-05-16T00:26:31.089Z,5.04
2019-05-16T00:26:36.090Z,5.37
2019-05-16T00:26:41.091Z,6.30
2019-05-16T00:26:46.091Z,6.91
2019-05-16T00:26:51.103Z,5.05
2019-05-16T00:26:56.093Z,5.09
2019-05-16T00:27:01.098Z,5.79
2019-05-16T00:27:06.096Z,4.32
2019-05-16T00:27:11.100Z,4.56
2019-05-16T00:27:16.096Z,4.37
2019-05-16T00:27:21.098Z,5.55
2019-05-16T00:27:26.100Z,5.72
2019-05-16T00:27:31.101Z,4.29
2019-05-16T00:27:36.101Z,4.29
2019-05-16T00:27:41.116Z,3.83
2019-05-16T00:27:46.103Z,3.67
2019-05-16T00:27:51.104Z,3.62
2019-05-16T00:27:56.106Z,4.70
2019-05-16T00:28:01.108Z,6.08
2019-05-16T00:28:06.359Z,5.89
2019-05-16T00:28:11.571Z,6.77
2019-05-16T00:28:16.109Z,6.34
2019-05-16T00:28:21.112Z,6.92
2019-05-16T00:28:26.112Z,5.26
2019-05-16T00:28:31.154Z,4.51
2019-05-16T00:28:36.113Z,5.56
2019-05-16T00:28:41.280Z,6.09
2019-05-16T00:28:46.115Z,6.54
2019-05-16T00:28:51.151Z,5.97
2019-05-16T00:28:56.117Z,6.04
2019-05-16T00:29:01.130Z,6.82
2019-05-16T00:29:06.120Z,7.08
2019-05-16T00:29:11.368Z,5.46
2019-05-16T00:29:16.122Z,6.63
2019-05-16T00:29:21.125Z,7.01
2019-05-16T00:29:26.123Z,7.14
2019-05-16T00:29:31.125Z,7.18
2019-05-16T00:29:36.126Z,7.19
2019-05-16T00:29:41.213Z,6.48
2019-05-16T00:29:46.202Z,4.54
2019-05-16T00:29:51.130Z,4.49
2019-05-16T00:29:56.175Z,3.89
2019-05-16T00:30:01.176Z,3.70
2019-05-16T00:30:06.178Z,4.21
2019-05-16T00:30:11.177Z,4.89
2019-05-16T00:30:16.180Z,6.15
2019-05-16T00:30:21.179Z,6.86
2019-05-16T00:30:26.180Z,7.09
2019-05-16T00:30:31.181Z,7.16
2019-05-16T00:30:36.183Z,7.19
2019-05-16T00:30:41.182Z,7.92
2019-05-16T00:30:46.184Z,8.62
2019-05-16T00:30:51.297Z,8.61
2019-05-16T00:30:56.187Z,9.36
2019-05-16T00:31:01.187Z,9.61
2019-05-16T00:31:06.192Z,9.11
2019-05-16T00:31:11.196Z,8.12
2019-05-16T00:31:16.288Z,7.50
2019-05-16T00:31:21.191Z,8.34
2019-05-16T00:31:26.192Z,7.94
2019-05-16T00:31:31.193Z,7.74
2019-05-16T00:31:36.195Z,7.38
2019-05-16T00:31:41.196Z,7.26
2019-05-16T00:31:46.195Z,7.94
2019-05-16T00:31:51.197Z,9.57
2019-05-16T00:31:56.202Z,8.34
2019-05-16T00:32:01.198Z,7.58
2019-05-16T00:32:06.202Z,7.32
2019-05-16T00:32:11.200Z,7.24
2019-05-16T00:32:16.201Z,7.21
2019-05-16T00:32:21.307Z,7.20
2019-05-16T00:32:26.203Z,7.20
2019-05-16T00:32:31.216Z,7.20
2019-05-16T00:32:36.206Z,7.20
2019-05-16T00:32:41.498Z,7.20
2019-05-16T00:32:46.215Z,7.20
2019-05-16T00:32:51.212Z,7.20
2019-05-16T00:32:56.211Z,7.20
2019-05-16T00:33:01.211Z,7.20
2019-05-16T00:33:06.212Z,7.20
2019-05-16T00:33:11.213Z,7.92
2019-05-16T00:33:16.214Z,9.86
2019-05-16T00:33:21.216Z,10.49
2019-05-16T00:33:26.216Z,9.46
2019-05-16T00:33:31.493Z,8.31
2019-05-16T00:33:36.218Z,8.32
2019-05-16T00:33:41.219Z,9.27
2019-05-16T00:33:46.221Z,10.76
2019-05-16T00:33:51.221Z,10.79
2019-05-16T00:33:56.223Z,10.80
2019-05-16T00:34:01.224Z,8.67
2019-05-16T00:34:06.228Z,7.68
2019-05-16T00:34:11.281Z,7.36
2019-05-16T00:34:16.225Z,7.25
2019-05-16T00:34:21.227Z,7.22
2019-05-16T00:34:26.229Z,7.21
2019-05-16T00:34:31.234Z,7.20
2019-05-16T00:34:36.230Z,5.15
2019-05-16T00:34:41.231Z,4.11
2019-05-16T00:34:46.233Z,5.52
2019-05-16T00:34:51.234Z,6.65
2019-05-16T00:34:56.235Z,7.02
2019-05-16T00:35:01.237Z,7.14
2019-05-16T00:35:06.236Z,5.52
2019-05-16T00:35:11.238Z,6.28
2019-05-16T00:35:16.238Z,6.90
2019-05-16T00:35:21.239Z,9.12
2019-05-16T00:35:26.240Z,10.91
2019-05-16T00:35:31.254Z,10.12
2019-05-16T00:35:36.247Z,8.16
2019-05-16T00:35:41.245Z,7.51
2019-05-16T00:35:46.244Z,7.30
2019-05-16T00:35:51.245Z,6.51
2019-05-16T00:35:56.246Z,6.15
2019-05-16T00:36:01.248Z,7.57
2019-05-16T00:36:06.248Z,8.34
2019-05-16T00:36:11.250Z,9.99
2019-05-16T00:36:16.250Z,9.71
2019-05-16T00:36:21.258Z,11.57
2019-05-16T00:36:26.254Z,11.05
2019-05-16T00:36:31.253Z,10.16
2019-05-16T00:36:36.254Z,10.59
2019-05-16T00:36:41.256Z,11.31
2019-05-16T00:36:46.257Z,10.25
2019-05-16T00:36:51.258Z,9.03
2019-05-16T00:36:56.259Z,9.92
2019-05-16T00:37:01.266Z,10.51
2019-05-16T00:37:06.261Z,11.28
2019-05-16T00:37:11.263Z,10.96
2019-05-16T00:37:16.262Z,8.73
2019-05-16T00:37:21.263Z,7.33
2019-05-16T00:37:26.263Z,9.66
2019-05-16T00:37:31.294Z,10.43
2019-05-16T00:37:36.265Z,8.63
2019-05-16T00:37:41.270Z,6.37
2019-05-16T00:37:46.269Z,6.56
2019-05-16T00:37:51.269Z,6.99
2019-05-16T00:37:56.270Z,7.13
2019-05-16T00:38:01.271Z,7.18
2019-05-16T00:38:06.273Z,8.49
2019-05-16T00:38:11.284Z,7.62
2019-05-16T00:38:16.274Z,8.74
2019-05-16T00:38:21.276Z,7.71
2019-05-16T00:38:26.368Z,7.37
2019-05-16T00:38:31.279Z,7.83
2019-05-16T00:38:36.279Z,8.07
2019-05-16T00:38:41.373Z,7.49
2019-05-16T00:38:46.285Z,7.29
2019-05-16T00:38:51.282Z,8.41
2019-05-16T00:38:56.292Z,7.60
2019-05-16T00:39:01.284Z,7.33
2019-05-16T00:39:06.285Z,7.24
2019-05-16T00:39:11.286Z,7.21
2019-05-16T00:39:16.398Z,7.78
2019-05-16T00:39:21.287Z,7.39
2019-05-16T00:39:26.288Z,7.56
2019-05-16T00:39:31.722Z,7.32
2019-05-16T00:39:36.292Z,8.42
2019-05-16T00:39:41.291Z,7.60
2019-05-16T00:39:46.293Z,10.79
2019-05-16T00:39:51.294Z,11.63
2019-05-16T00:39:56.294Z,11.07
2019-05-16T00:40:01.297Z,10.89
2019-05-16T00:40:06.298Z,11.20
2019-05-16T00:40:11.297Z,10.93
2019-05-16T00:40:16.299Z,9.55
2019-05-16T00:40:21.303Z,8.69
2019-05-16T00:40:26.565Z,9.07
2019-05-16T00:40:31.301Z,10.23
2019-05-16T00:40:36.303Z,10.61
2019-05-16T00:40:41.647Z,9.07
2019-05-16T00:40:46.305Z,9.48
2019-05-16T00:40:51.306Z,10.37
2019-05-16T00:40:56.511Z,9.53
2019-05-16T00:41:01.309Z,10.39
2019-05-16T00:41:06.309Z,9.94
2019-05-16T00:41:11.310Z,8.39
2019-05-16T00:41:16.311Z,7.59
2019-05-16T00:41:21.312Z,8.62
2019-05-16T00:41:26.312Z,7.67
2019-05-16T00:41:31.315Z,7.35
2019-05-16T00:41:36.315Z,7.25
2019-05-16T00:41:41.413Z,9.64
2019-05-16T00:41:46.655Z,8.29
2019-05-16T00:41:51.320Z,7.56
2019-05-16T00:41:56.330Z,7.32
2019-05-16T00:42:01.321Z,5.48
2019-05-16T00:42:06.323Z,4.22
2019-05-16T00:42:11.322Z,6.80
2019-05-16T00:42:16.324Z,8.31
2019-05-16T00:42:21.325Z,7.56
2019-05-16T00:42:26.536Z,9.08
2019-05-16T00:42:31.326Z,8.48
2019-05-16T00:42:36.327Z,7.62
2019-05-16T00:42:42.573Z,9.76
2019-05-16T00:42:46.330Z,8.33
2019-05-16T00:42:51.329Z,9.70
2019-05-16T00:42:56.330Z,10.44
2019-05-16T00:43:01.941Z,10.68
2019-05-16T00:43:06.334Z,9.06
2019-05-16T00:43:11.335Z,7.81
2019-05-16T00:43:16.336Z,6.10
2019-05-16T00:43:21.336Z,5.72
2019-05-16T00:43:26.337Z,6.71
2019-05-16T00:43:31.339Z,7.62
2019-05-16T00:43:36.363Z,7.63
2019-05-16T00:43:41.342Z,7.34
2019-05-16T00:43:46.348Z,6.79
2019-05-16T00:43:51.341Z,4.64
2019-05-16T00:43:56.342Z,5.70
2019-05-16T00:44:01.347Z,6.71
2019-05-16T00:44:06.346Z,6.17
2019-05-16T00:44:11.347Z,6.57
2019-05-16T00:44:16.347Z,6.99
2019-05-16T00:44:21.350Z,7.13
2019-05-16T00:44:26.350Z,9.60
2019-05-16T00:44:31.351Z,7.56
2019-05-16T00:44:36.352Z,7.32
2019-05-16T00:44:41.354Z,7.24
2019-05-16T00:44:46.353Z,7.21
2019-05-16T00:44:51.354Z,7.20
2019-05-16T00:44:56.355Z,7.20
2019-05-16T00:45:01.356Z,7.20
2019-05-16T00:45:06.358Z,7.20
2019-05-16T00:45:11.360Z,7.20
2019-05-16T00:45:16.499Z,7.20
2019-05-16T00:45:21.359Z,7.20
2019-05-16T00:45:26.878Z,6.74
2019-05-16T00:45:31.363Z,4.92
2019-05-16T00:45:36.375Z,5.79
2019-05-16T00:45:41.468Z,5.91
2019-05-16T00:45:46.366Z,6.78
2019-05-16T00:45:51.367Z,5.77
2019-05-16T00:45:56.370Z,6.43
2019-05-16T00:46:01.368Z,5.19
2019-05-16T00:46:06.369Z,6.25
2019-05-16T00:46:11.370Z,6.89
2019-05-16T00:46:16.371Z,7.10
2019-05-16T00:46:21.372Z,7.17
2019-05-16T00:46:26.375Z,7.19
2019-05-16T00:46:31.374Z,7.20
2019-05-16T00:46:36.381Z,7.57
2019-05-16T00:46:41.379Z,7.32
2019-05-16T00:46:46.377Z,7.24
2019-05-16T00:46:51.379Z,7.21
2019-05-16T00:46:56.379Z,7.20
2019-05-16T00:47:01.382Z,7.20
2019-05-16T00:47:06.782Z,7.20
2019-05-16T00:47:11.383Z,7.20
2019-05-16T00:47:16.388Z,7.20
2019-05-16T00:47:21.385Z,7.20
2019-05-16T00:47:26.386Z,7.20
2019-05-16T00:47:31.385Z,7.20
2019-05-16T00:47:36.388Z,7.20
2019-05-16T00:47:41.502Z,6.48
2019-05-16T00:47:46.389Z,5.21
2019-05-16T00:47:51.414Z,4.70
2019-05-16T00:47:56.395Z,6.38
2019-05-16T00:48:01.399Z,4.88
2019-05-16T00:48:06.394Z,4.02
2019-05-16T00:48:11.395Z,5.49
2019-05-16T00:48:16.674Z,6.64
2019-05-16T00:48:21.399Z,7.02
2019-05-16T00:48:26.397Z,7.14
2019-05-16T00:48:31.400Z,7.18
2019-05-16T00:48:36.401Z,7.77
2019-05-16T00:48:41.401Z,9.81
2019-05-16T00:48:46.400Z,9.75
2019-05-16T00:48:51.402Z,10.09
2019-05-16T00:48:56.405Z,10.57
2019-05-16T00:49:01.404Z,12.13
2019-05-16T00:49:06.406Z,13.66
2019-05-16T00:49:11.408Z,12.03
2019-05-16T00:49:16.430Z,11.20
2019-05-16T00:49:21.409Z,10.93
2019-05-16T00:49:26.438Z,10.84
2019-05-16T00:49:31.427Z,8.69
2019-05-16T00:49:36.412Z,7.98
2019-05-16T00:49:41.414Z,7.83
2019-05-16T00:49:46.415Z,7.40
2019-05-16T00:49:51.416Z,7.27
2019-05-16T00:49:56.415Z,8.98
2019-05-16T00:50:01.418Z,10.20
2019-05-16T00:50:06.416Z,11.55
2019-05-16T00:50:11.417Z,11.34
2019-05-16T00:50:16.418Z,10.98
2019-05-16T00:50:21.426Z,12.04
2019-05-16T00:50:26.422Z,11.78
2019-05-16T00:50:31.440Z,11.70
2019-05-16T00:50:36.442Z,13.51
2019-05-16T00:50:41.498Z,14.11
2019-05-16T00:50:46.442Z,12.25
2019-05-16T00:50:51.443Z,10.56
2019-05-16T00:50:56.460Z,8.30
2019-05-16T00:51:01.447Z,8.43
2019-05-16T00:51:06.446Z,7.60
2019-05-16T00:51:11.448Z,7.91
2019-05-16T00:51:16.474Z,8.01
2019-05-16T00:51:21.449Z,7.46
2019-05-16T00:51:26.451Z,9.71
2019-05-16T00:51:31.450Z,9.72
2019-05-16T00:51:36.452Z,9.27
2019-05-16T00:51:41.452Z,8.63
2019-05-16T00:51:46.453Z,7.67
2019-05-16T00:51:51.455Z,8.30
2019-05-16T00:51:56.457Z,7.85
2019-05-16T00:52:01.906Z,7.41
2019-05-16T00:52:06.463Z,7.27
2019-05-16T00:52:11.458Z,6.50
2019-05-16T00:52:16.461Z,6.97
2019-05-16T00:52:21.461Z,7.13
2019-05-16T00:52:26.466Z,7.18
2019-05-16T00:52:31.464Z,6.47
2019-05-16T00:52:36.463Z,6.67
2019-05-16T00:52:41.547Z,7.03
2019-05-16T00:52:46.466Z,7.14
2019-05-16T00:52:51.468Z,7.18
2019-05-16T00:52:56.467Z,7.19
2019-05-16T00:53:01.504Z,6.48
2019-05-16T00:53:07.715Z,4.54
2019-05-16T00:53:11.472Z,3.91
2019-05-16T00:53:16.801Z,3.70
2019-05-16T00:53:21.491Z,4.21
2019-05-16T00:53:26.474Z,4.09
2019-05-16T00:53:31.481Z,3.76
2019-05-16T00:53:36.526Z,3.65
2019-05-16T00:53:42.059Z,5.37
2019-05-16T00:53:46.487Z,6.60
2019-05-16T00:53:51.479Z,6.25
2019-05-16T00:53:56.529Z,5.85
2019-05-16T00:54:01.481Z,6.39
2019-05-16T00:54:06.481Z,6.93
2019-05-16T00:54:11.483Z,5.82
2019-05-16T00:54:16.483Z,4.33
2019-05-16T00:54:21.484Z,3.84
2019-05-16T00:54:26.486Z,4.86
2019-05-16T00:54:31.793Z,6.80
2019-05-16T00:54:36.490Z,7.73
2019-05-16T00:54:41.489Z,7.37
2019-05-16T00:54:46.490Z,4.84
2019-05-16T00:54:51.490Z,4.01
2019-05-16T00:54:56.494Z,5.86
2019-05-16T00:55:01.493Z,7.48
2019-05-16T00:55:06.494Z,7.29
2019-05-16T00:55:11.496Z,7.23
2019-05-16T00:55:16.497Z,5.16
2019-05-16T00:55:21.497Z,5.70
2019-05-16T00:55:26.497Z,6.25
2019-05-16T00:55:31.501Z,6.89
2019-05-16T00:55:36.513Z,4.97
2019-05-16T00:55:41.501Z,4.05
2019-05-16T00:55:46.730Z,3.75
2019-05-16T00:55:51.503Z,3.65
2019-05-16T00:55:56.507Z,3.62
2019-05-16T00:56:01.505Z,4.33
2019-05-16T00:56:06.506Z,4.59
2019-05-16T00:56:11.647Z,3.93
2019-05-16T00:56:16.507Z,3.71
2019-05-16T00:56:21.511Z,3.63
2019-05-16T00:56:26.515Z,3.61
2019-05-16T00:56:31.510Z,5.08
2019-05-16T00:56:36.512Z,4.08
2019-05-16T00:56:41.514Z,4.70
2019-05-16T00:56:46.606Z,3.96
2019-05-16T00:56:51.515Z,3.72
2019-05-16T00:56:56.521Z,3.64
2019-05-16T00:57:01.530Z,4.65
2019-05-16T00:57:06.534Z,5.61
2019-05-16T00:57:11.523Z,7.86
2019-05-16T00:57:16.521Z,9.84
2019-05-16T00:57:21.521Z,8.06
2019-05-16T00:57:26.526Z,5.06
2019-05-16T00:57:31.524Z,4.08
2019-05-16T00:57:36.530Z,4.22
2019-05-16T00:57:41.526Z,6.22
2019-05-16T00:57:46.526Z,6.88
2019-05-16T00:57:51.529Z,7.10
2019-05-16T00:57:56.530Z,6.59
2019-05-16T00:58:01.529Z,6.28
2019-05-16T00:58:06.660Z,6.07
2019-05-16T00:58:11.532Z,6.83
2019-05-16T00:58:16.535Z,7.08
2019-05-16T00:58:21.533Z,5.46
2019-05-16T00:58:26.535Z,4.67
2019-05-16T00:58:31.535Z,4.67
2019-05-16T00:58:36.538Z,6.37
2019-05-16T00:58:41.539Z,6.93
2019-05-16T00:58:46.537Z,7.11
2019-05-16T00:58:51.540Z,7.17
2019-05-16T00:58:56.541Z,7.19
2019-05-16T00:59:03.739Z,6.83
2019-05-16T00:59:06.543Z,7.08
2019-05-16T00:59:11.543Z,6.79
2019-05-16T00:59:17.194Z,6.61
2019-05-16T00:59:21.545Z,6.25
2019-05-16T00:59:26.548Z,6.89
2019-05-16T00:59:31.554Z,7.39
2019-05-16T00:59:36.549Z,7.26
2019-05-16T00:59:41.555Z,7.22
2019-05-16T00:59:46.552Z,7.21
2019-05-16T00:59:51.551Z,7.20
2019-05-16T00:59:56.552Z,7.20
2019-05-16T01:00:01.553Z,5.44
2019-05-16T01:00:06.554Z,4.92
2019-05-16T01:00:11.556Z,5.12
2019-05-16T01:00:16.557Z,4.47
2019-05-16T01:00:21.557Z,3.88
2019-05-16T01:00:26.560Z,4.41
2019-05-16T01:00:31.563Z,5.16
2019-05-16T01:00:36.561Z,4.41
2019-05-16T01:00:41.562Z,4.58
2019-05-16T01:00:46.562Z,5.33
2019-05-16T01:00:51.589Z,4.17
2019-05-16T01:00:56.564Z,5.49
2019-05-16T01:01:01.566Z,4.51
2019-05-16T01:01:06.566Z,3.90
2019-05-16T01:01:11.568Z,3.70
2019-05-16T01:01:16.569Z,4.35
2019-05-16T01:01:21.569Z,5.97
2019-05-16T01:01:26.573Z,5.62
2019-05-16T01:01:31.717Z,4.84
2019-05-16T01:01:36.572Z,5.60
2019-05-16T01:01:41.573Z,4.62
2019-05-16T01:01:46.574Z,5.78
2019-05-16T01:01:51.615Z,6.73
2019-05-16T01:01:56.578Z,7.05
2019-05-16T01:02:01.637Z,7.15
2019-05-16T01:02:06.578Z,7.18
2019-05-16T01:02:11.580Z,7.19
2019-05-16T01:02:16.581Z,7.20
2019-05-16T01:02:21.582Z,6.74
2019-05-16T01:02:26.588Z,5.38
2019-05-16T01:02:31.591Z,6.60
2019-05-16T01:02:36.999Z,7.01
2019-05-16T01:02:41.690Z,6.42
2019-05-16T01:02:46.586Z,4.82
2019-05-16T01:02:51.588Z,5.66
2019-05-16T01:02:56.599Z,6.70
2019-05-16T01:03:01.590Z,5.28
2019-05-16T01:03:06.596Z,4.15
2019-05-16T01:03:11.597Z,5.44
2019-05-16T01:03:16.593Z,6.62
2019-05-16T01:03:21.593Z,7.01
2019-05-16T01:03:26.595Z,5.59
2019-05-16T01:03:31.595Z,5.55
2019-05-16T01:03:36.598Z,7.38
2019-05-16T01:03:41.599Z,7.26
2019-05-16T01:03:46.598Z,5.09
2019-05-16T01:03:51.599Z,4.81
2019-05-16T01:03:56.604Z,6.42
2019-05-16T01:04:01.607Z,6.94
2019-05-16T01:04:06.750Z,6.54
2019-05-16T01:04:11.657Z,6.98
2019-05-16T01:04:16.612Z,7.85
2019-05-16T01:04:21.606Z,7.41
2019-05-16T01:04:26.607Z,7.27
2019-05-16T01:04:31.975Z,7.22
2019-05-16T01:04:37.018Z,7.21
2019-05-16T01:04:41.610Z,7.20
2019-05-16T01:04:46.611Z,7.20
2019-05-16T01:04:51.614Z,6.48
2019-05-16T01:04:56.612Z,5.30
2019-05-16T01:05:01.613Z,4.88
2019-05-16T01:05:06.614Z,4.68
2019-05-16T01:05:11.618Z,3.95
2019-05-16T01:05:16.618Z,4.18
2019-05-16T01:05:21.617Z,5.55
2019-05-16T01:05:26.617Z,5.94
2019-05-16T01:05:31.620Z,5.03
2019-05-16T01:05:36.620Z,4.79
2019-05-16T01:05:41.623Z,6.11
2019-05-16T01:05:46.624Z,4.72
2019-05-16T01:05:51.624Z,3.97
2019-05-16T01:05:56.627Z,5.02
2019-05-16T01:06:01.766Z,6.19
2019-05-16T01:06:06.628Z,5.02
2019-05-16T01:06:11.653Z,6.03
2019-05-16T01:06:16.628Z,6.82
2019-05-16T01:06:21.630Z,7.07